LEAM/LEI METAR and TAF weather

Enter ICAO airport designator
Station Type Date Time Source
LEAM METAR 2021/07/30 06:00 UTC NOAA

LEAM 300600Z VRB02KT 9999 FEW008 24/23 Q1012


Station Type Date Time Source
LEAM Decoded METAR 2021/07/30 06:00 UTC NOAA

Almeria / Aeropuerto, Spain (LEAM) 36-51N 002-23W 21M
Jul 30, 2021 - 02:00 AM EDT / 2021.07.30 0600 UTC
Wind: Variable at 2 MPH (2 KT):0
Visibility: greater than 7 mile(s):0
Sky conditions: mostly clear
Temperature: 75 F (24 C)
Dew Point: 73 F (23 C)
Relative Humidity: 94%
Pressure (altimeter): 29.88 in. Hg (1012 hPa)
ob: LEAM 300600Z VRB02KT 9999 FEW008 24/23 Q1012
cycle: 6

Station Type Date Time Source
LEAM TAF 2021/07/30 06:27 UTC NOAA

TAF LEAM 300500Z 3006/3106 10004KT CAVOK TX26/3015Z TN19/3106Z
TEMPO 3006/3009 BKN010 PROB30
TEMPO 3006/3008 0500 FG
BECMG 3010/3012 22010KT

Example: see airport list